sensor_id;sensor_type;location;lat;lon;timestamp;P1;durP1;ratioP1;P2;durP2;ratioP2
38972;SDS011;25333;50.762;4.470;2023-06-05T00:01:58;3.33;;;1.33;;
38972;SDS011;25333;50.762;4.470;2023-06-05T00:04:24;2.83;;;1.05;;
38972;SDS011;25333;50.762;4.470;2023-06-05T00:06:50;2.90;;;0.90;;
38972;SDS011;25333;50.762;4.470;2023-06-05T00:09:16;3.13;;;1.40;;
38972;SDS011;25333;50.762;4.470;2023-06-05T00:11:42;2.70;;;1.08;;
38972;SDS011;25333;50.762;4.470;2023-06-05T00:14:08;4.20;;;1.23;;
38972;SDS011;25333;50.762;4.470;2023-06-05T00:16:34;4.73;;;1.70;;
38972;SDS011;25333;50.762;4.470;2023-06-05T00:19:00;3.20;;;1.58;;
38972;SDS011;25333;50.762;4.470;2023-06-05T00:21:27;4.35;;;1.70;;
38972;SDS011;25333;50.762;4.470;2023-06-05T00:23:53;3.00;;;1.45;;
38972;SDS011;25333;50.762;4.470;2023-06-05T00:26:19;3.73;;;1.43;;
38972;SDS011;25333;50.762;4.470;2023-06-05T00:28:44;3.42;;;1.38;;
38972;SDS011;25333;50.762;4.470;2023-06-05T00:31:11;2.97;;;1.20;;
38972;SDS011;25333;50.762;4.470;2023-06-05T00:33:38;3.53;;;1.48;;
38972;SDS011;25333;50.762;4.470;2023-06-05T00:36:04;2.78;;;1.42;;
38972;SDS011;25333;50.762;4.470;2023-06-05T00:38:30;2.72;;;0.98;;
38972;SDS011;25333;50.762;4.470;2023-06-05T00:40:55;3.20;;;1.25;;
38972;SDS011;25333;50.762;4.470;2023-06-05T00:43:21;3.53;;;1.40;;
38972;SDS011;25333;50.762;4.470;2023-06-05T00:45:47;4.50;;;1.50;;
38972;SDS011;25333;50.762;4.470;2023-06-05T00:48:13;3.33;;;1.52;;
38972;SDS011;25333;50.762;4.470;2023-06-05T00:50:38;3.88;;;1.65;;
38972;SDS011;25333;50.762;4.470;2023-06-05T00:53:05;2.50;;;1.50;;
38972;SDS011;25333;50.762;4.470;2023-06-05T00:55:32;3.40;;;1.95;;
38972;SDS011;25333;50.762;4.470;2023-06-05T00:57:58;4.10;;;1.33;;
38972;SDS011;25333;50.762;4.470;2023-06-05T01:00:28;3.80;;;1.77;;
38972;SDS011;25333;50.762;4.470;2023-06-05T01:02:53;4.43;;;1.77;;
38972;SDS011;25333;50.762;4.470;2023-06-05T01:05:23;3.97;;;1.40;;
38972;SDS011;25333;50.762;4.470;2023-06-05T01:07:49;3.83;;;1.80;;
38972;SDS011;25333;50.762;4.470;2023-06-05T01:10:15;2.80;;;1.77;;
38972;SDS011;25333;50.762;4.470;2023-06-05T01:15:19;3.72;;;1.73;;
38972;SDS011;25333;50.762;4.470;2023-06-05T01:17:53;3.13;;;1.13;;
38972;SDS011;25333;50.762;4.470;2023-06-05T01:20:31;5.10;;;2.27;;
38972;SDS011;25333;50.762;4.470;2023-06-05T01:22:59;4.57;;;2.10;;
38972;SDS011;25333;50.762;4.470;2023-06-05T01:25:26;2.67;;;1.67;;
38972;SDS011;25333;50.762;4.470;2023-06-05T01:27:54;3.72;;;1.63;;
38972;SDS011;25333;50.762;4.470;2023-06-05T01:33:09;3.35;;;1.77;;
38972;SDS011;25333;50.762;4.470;2023-06-05T01:35:42;5.30;;;1.90;;
38972;SDS011;25333;50.762;4.470;2023-06-05T01:38:10;3.47;;;1.65;;
38972;SDS011;25333;50.762;4.470;2023-06-05T01:40:36;4.75;;;2.30;;
38972;SDS011;25333;50.762;4.470;2023-06-05T01:43:03;5.13;;;2.45;;
38972;SDS011;25333;50.762;4.470;2023-06-05T01:45:31;3.30;;;1.85;;
38972;SDS011;25333;50.762;4.470;2023-06-05T01:47:57;3.85;;;1.70;;
38972;SDS011;25333;50.762;4.470;2023-06-05T01:50:23;4.18;;;1.80;;
38972;SDS011;25333;50.762;4.470;2023-06-05T01:52:49;3.40;;;1.90;;
38972;SDS011;25333;50.762;4.470;2023-06-05T01:55:18;4.03;;;1.90;;
38972;SDS011;25333;50.762;4.470;2023-06-05T01:57:48;4.63;;;1.83;;
38972;SDS011;25333;50.762;4.470;2023-06-05T02:00:18;3.83;;;1.80;;
38972;SDS011;25333;50.762;4.470;2023-06-05T02:02:44;3.47;;;1.45;;
38972;SDS011;25333;50.762;4.470;2023-06-05T02:05:12;5.13;;;1.90;;
38972;SDS011;25333;50.762;4.470;2023-06-05T02:07:38;5.40;;;1.90;;
38972;SDS011;25333;50.762;4.470;2023-06-05T02:10:06;3.50;;;1.42;;
38972;SDS011;25333;50.762;4.470;2023-06-05T02:12:34;6.28;;;2.30;;
38972;SDS011;25333;50.762;4.470;2023-06-05T02:15:02;5.00;;;2.88;;
38972;SDS011;25333;50.762;4.470;2023-06-05T02:17:29;3.28;;;1.85;;
38972;SDS011;25333;50.762;4.470;2023-06-05T02:19:55;4.85;;;2.30;;
38972;SDS011;25333;50.762;4.470;2023-06-05T02:22:21;3.83;;;1.95;;
38972;SDS011;25333;50.762;4.470;2023-06-05T02:24:48;3.95;;;1.75;;
38972;SDS011;25333;50.762;4.470;2023-06-05T02:27:16;2.72;;;1.45;;
38972;SDS011;25333;50.762;4.470;2023-06-05T02:29:44;3.10;;;2.25;;
38972;SDS011;25333;50.762;4.470;2023-06-05T02:32:10;3.17;;;1.90;;
38972;SDS011;25333;50.762;4.470;2023-06-05T02:34:36;5.15;;;1.63;;
38972;SDS011;25333;50.762;4.470;2023-06-05T02:37:02;2.67;;;1.73;;
38972;SDS011;25333;50.762;4.470;2023-06-05T02:39:28;4.60;;;1.90;;
38972;SDS011;25333;50.762;4.470;2023-06-05T02:41:56;4.25;;;2.28;;
38972;SDS011;25333;50.762;4.470;2023-06-05T02:44:22;4.03;;;2.22;;
38972;SDS011;25333;50.762;4.470;2023-06-05T02:46:48;4.53;;;2.07;;
38972;SDS011;25333;50.762;4.470;2023-06-05T02:49:13;3.78;;;1.90;;
38972;SDS011;25333;50.762;4.470;2023-06-05T02:51:39;4.40;;;1.67;;
38972;SDS011;25333;50.762;4.470;2023-06-05T02:54:05;4.83;;;1.87;;
38972;SDS011;25333;50.762;4.470;2023-06-05T02:56:30;3.90;;;2.03;;
38972;SDS011;25333;50.762;4.470;2023-06-05T02:58:56;3.70;;;1.50;;
38972;SDS011;25333;50.762;4.470;2023-06-05T03:01:22;3.75;;;2.03;;
38972;SDS011;25333;50.762;4.470;2023-06-05T03:03:50;4.13;;;2.28;;
38972;SDS011;25333;50.762;4.470;2023-06-05T03:06:17;3.97;;;2.13;;
38972;SDS011;25333;50.762;4.470;2023-06-05T03:08:43;4.80;;;2.13;;
38972;SDS011;25333;50.762;4.470;2023-06-05T03:11:10;4.97;;;2.35;;
38972;SDS011;25333;50.762;4.470;2023-06-05T03:13:35;4.40;;;2.17;;
38972;SDS011;25333;50.762;4.470;2023-06-05T03:16:01;3.28;;;1.98;;
38972;SDS011;25333;50.762;4.470;2023-06-05T03:18:27;6.40;;;2.65;;
38972;SDS011;25333;50.762;4.470;2023-06-05T03:20:54;4.05;;;2.05;;
38972;SDS011;25333;50.762;4.470;2023-06-05T03:23:24;4.03;;;2.10;;
38972;SDS011;25333;50.762;4.470;2023-06-05T03:25:50;3.72;;;2.58;;
38972;SDS011;25333;50.762;4.470;2023-06-05T03:28:17;4.15;;;1.98;;
38972;SDS011;25333;50.762;4.470;2023-06-05T03:30:43;5.18;;;2.40;;
38972;SDS011;25333;50.762;4.470;2023-06-05T03:33:10;3.78;;;2.72;;
38972;SDS011;25333;50.762;4.470;2023-06-05T03:35:36;6.03;;;2.13;;
38972;SDS011;25333;50.762;4.470;2023-06-05T03:38:02;5.57;;;3.20;;
38972;SDS011;25333;50.762;4.470;2023-06-05T03:40:28;6.00;;;2.92;;
38972;SDS011;25333;50.762;4.470;2023-06-05T03:42:54;4.63;;;2.47;;
38972;SDS011;25333;50.762;4.470;2023-06-05T03:45:19;7.07;;;3.53;;
38972;SDS011;25333;50.762;4.470;2023-06-05T03:47:45;4.57;;;2.60;;
38972;SDS011;25333;50.762;4.470;2023-06-05T03:50:13;4.82;;;2.90;;
38972;SDS011;25333;50.762;4.470;2023-06-05T03:52:40;3.53;;;2.65;;
38972;SDS011;25333;50.762;4.470;2023-06-05T03:55:06;4.93;;;2.78;;
38972;SDS011;25333;50.762;4.470;2023-06-05T03:57:33;4.93;;;2.40;;
38972;SDS011;25333;50.762;4.470;2023-06-05T03:59:59;3.92;;;2.58;;
38972;SDS011;25333;50.762;4.470;2023-06-05T04:02:25;3.75;;;2.17;;
38972;SDS011;25333;50.762;4.470;2023-06-05T04:04:51;3.97;;;2.50;;
38972;SDS011;25333;50.762;4.470;2023-06-05T04:07:17;4.13;;;2.73;;
38972;SDS011;25333;50.762;4.470;2023-06-05T04:09:42;4.10;;;2.50;;
38972;SDS011;25333;50.762;4.470;2023-06-05T04:12:08;5.40;;;2.77;;
38972;SDS011;25333;50.762;4.470;2023-06-05T04:14:38;6.50;;;3.10;;
38972;SDS011;25333;50.762;4.470;2023-06-05T04:17:04;6.13;;;3.40;;
38972;SDS011;25333;50.762;4.470;2023-06-05T04:19:30;6.03;;;3.43;;
38972;SDS011;25333;50.762;4.470;2023-06-05T04:21:56;6.03;;;3.17;;
38972;SDS011;25333;50.762;4.470;2023-06-05T04:24:21;5.90;;;3.42;;
38972;SDS011;25333;50.762;4.470;2023-06-05T04:26:50;4.45;;;2.95;;
38972;SDS011;25333;50.762;4.470;2023-06-05T04:29:16;5.47;;;3.47;;
38972;SDS011;25333;50.762;4.470;2023-06-05T04:31:44;5.70;;;3.03;;
38972;SDS011;25333;50.762;4.470;2023-06-05T04:34:11;5.07;;;2.92;;
38972;SDS011;25333;50.762;4.470;2023-06-05T04:36:37;6.20;;;3.20;;
38972;SDS011;25333;50.762;4.470;2023-06-05T04:39:03;4.75;;;2.70;;
38972;SDS011;25333;50.762;4.470;2023-06-05T04:41:32;5.88;;;3.38;;
38972;SDS011;25333;50.762;4.470;2023-06-05T04:43:58;4.93;;;3.17;;
38972;SDS011;25333;50.762;4.470;2023-06-05T04:46:25;4.65;;;3.58;;
38972;SDS011;25333;50.762;4.470;2023-06-05T04:48:51;6.78;;;3.42;;
38972;SDS011;25333;50.762;4.470;2023-06-05T04:51:20;4.88;;;3.35;;
38972;SDS011;25333;50.762;4.470;2023-06-05T04:53:46;9.40;;;4.35;;
38972;SDS011;25333;50.762;4.470;2023-06-05T04:56:15;5.53;;;4.05;;
38972;SDS011;25333;50.762;4.470;2023-06-05T04:58:41;8.38;;;4.20;;
38972;SDS011;25333;50.762;4.470;2023-06-05T05:01:07;7.90;;;4.68;;
38972;SDS011;25333;50.762;4.470;2023-06-05T05:03:33;6.33;;;4.37;;
38972;SDS011;25333;50.762;4.470;2023-06-05T05:05:58;6.30;;;3.97;;
38972;SDS011;25333;50.762;4.470;2023-06-05T05:08:25;5.82;;;3.85;;
38972;SDS011;25333;50.762;4.470;2023-06-05T05:10:52;5.35;;;3.53;;
38972;SDS011;25333;50.762;4.470;2023-06-05T05:13:18;5.30;;;3.92;;
38972;SDS011;25333;50.762;4.470;2023-06-05T05:15:44;6.47;;;3.57;;
38972;SDS011;25333;50.762;4.470;2023-06-05T05:18:10;5.63;;;3.80;;
38972;SDS011;25333;50.762;4.470;2023-06-05T05:20:36;6.90;;;4.57;;
38972;SDS011;25333;50.762;4.470;2023-06-05T05:23:03;6.07;;;3.70;;
38972;SDS011;25333;50.762;4.470;2023-06-05T05:25:29;5.75;;;4.00;;
38972;SDS011;25333;50.762;4.470;2023-06-05T05:27:55;6.55;;;4.30;;
38972;SDS011;25333;50.762;4.470;2023-06-05T05:30:20;8.30;;;4.77;;
38972;SDS011;25333;50.762;4.470;2023-06-05T05:32:46;6.97;;;4.53;;
38972;SDS011;25333;50.762;4.470;2023-06-05T05:35:12;8.32;;;4.25;;
38972;SDS011;25333;50.762;4.470;2023-06-05T05:37:37;7.65;;;4.55;;
38972;SDS011;25333;50.762;4.470;2023-06-05T05:40:03;6.87;;;4.60;;
38972;SDS011;25333;50.762;4.470;2023-06-05T05:42:30;4.88;;;4.13;;
38972;SDS011;25333;50.762;4.470;2023-06-05T05:44:57;6.88;;;3.75;;
38972;SDS011;25333;50.762;4.470;2023-06-05T05:47:22;8.00;;;4.50;;
38972;SDS011;25333;50.762;4.470;2023-06-05T05:49:48;7.07;;;4.93;;
38972;SDS011;25333;50.762;4.470;2023-06-05T05:52:13;8.32;;;4.90;;
38972;SDS011;25333;50.762;4.470;2023-06-05T05:54:39;7.13;;;4.32;;
38972;SDS011;25333;50.762;4.470;2023-06-05T05:57:05;6.83;;;4.63;;
38972;SDS011;25333;50.762;4.470;2023-06-05T05:59:32;7.35;;;4.80;;
38972;SDS011;25333;50.762;4.470;2023-06-05T06:01:57;6.40;;;4.27;;
38972;SDS011;25333;50.762;4.470;2023-06-05T06:04:25;7.88;;;4.88;;
38972;SDS011;25333;50.762;4.470;2023-06-05T06:06:51;5.73;;;4.70;;
38972;SDS011;25333;50.762;4.470;2023-06-05T06:09:17;7.07;;;4.90;;
38972;SDS011;25333;50.762;4.470;2023-06-05T06:11:43;6.97;;;4.43;;
38972;SDS011;25333;50.762;4.470;2023-06-05T06:14:09;6.90;;;4.80;;
38972;SDS011;25333;50.762;4.470;2023-06-05T06:16:36;7.40;;;4.60;;
38972;SDS011;25333;50.762;4.470;2023-06-05T06:19:02;8.90;;;5.32;;
38972;SDS011;25333;50.762;4.470;2023-06-05T06:21:29;9.30;;;5.13;;
38972;SDS011;25333;50.762;4.470;2023-06-05T06:23:55;7.30;;;4.97;;
38972;SDS011;25333;50.762;4.470;2023-06-05T06:26:22;6.85;;;4.75;;
38972;SDS011;25333;50.762;4.470;2023-06-05T06:28:47;6.43;;;4.20;;
38972;SDS011;25333;50.762;4.470;2023-06-05T06:31:19;7.97;;;5.63;;
38972;SDS011;25333;50.762;4.470;2023-06-05T06:33:46;9.80;;;5.15;;
38972;SDS011;25333;50.762;4.470;2023-06-05T06:36:11;5.60;;;3.83;;
38972;SDS011;25333;50.762;4.470;2023-06-05T06:38:37;5.73;;;4.70;;
38972;SDS011;25333;50.762;4.470;2023-06-05T06:41:02;7.97;;;4.40;;
38972;SDS011;25333;50.762;4.470;2023-06-05T06:43:28;8.20;;;4.73;;
38972;SDS011;25333;50.762;4.470;2023-06-05T06:45:53;9.82;;;4.60;;
38972;SDS011;25333;50.762;4.470;2023-06-05T06:48:19;8.80;;;4.88;;
38972;SDS011;25333;50.762;4.470;2023-06-05T06:50:45;5.53;;;3.83;;
38972;SDS011;25333;50.762;4.470;2023-06-05T06:53:11;7.88;;;5.20;;
38972;SDS011;25333;50.762;4.470;2023-06-05T06:55:37;6.07;;;3.50;;
38972;SDS011;25333;50.762;4.470;2023-06-05T06:58:03;6.20;;;4.25;;
38972;SDS011;25333;50.762;4.470;2023-06-05T07:00:30;8.27;;;4.70;;
38972;SDS011;25333;50.762;4.470;2023-06-05T07:02:55;6.78;;;4.60;;
38972;SDS011;25333;50.762;4.470;2023-06-05T07:05:21;6.38;;;4.07;;
38972;SDS011;25333;50.762;4.470;2023-06-05T07:07:47;8.27;;;4.93;;
38972;SDS011;25333;50.762;4.470;2023-06-05T07:10:13;7.50;;;4.47;;
38972;SDS011;25333;50.762;4.470;2023-06-05T07:12:39;6.70;;;4.63;;
38972;SDS011;25333;50.762;4.470;2023-06-05T07:15:05;5.73;;;4.17;;
38972;SDS011;25333;50.762;4.470;2023-06-05T07:17:31;5.35;;;3.90;;
38972;SDS011;25333;50.762;4.470;2023-06-05T07:19:57;5.88;;;4.03;;
38972;SDS011;25333;50.762;4.470;2023-06-05T07:22:23;7.25;;;4.38;;
38972;SDS011;25333;50.762;4.470;2023-06-05T07:24:49;6.22;;;4.30;;
38972;SDS011;25333;50.762;4.470;2023-06-05T07:27:16;5.18;;;3.75;;
38972;SDS011;25333;50.762;4.470;2023-06-05T07:29:42;6.07;;;3.85;;
38972;SDS011;25333;50.762;4.470;2023-06-05T07:32:07;6.27;;;4.17;;
38972;SDS011;25333;50.762;4.470;2023-06-05T07:34:33;6.60;;;4.60;;
38972;SDS011;25333;50.762;4.470;2023-06-05T07:36:59;8.27;;;3.95;;
38972;SDS011;25333;50.762;4.470;2023-06-05T07:39:25;6.00;;;4.65;;
38972;SDS011;25333;50.762;4.470;2023-06-05T07:41:51;7.50;;;5.03;;
38972;SDS011;25333;50.762;4.470;2023-06-05T07:44:17;8.70;;;4.47;;
38972;SDS011;25333;50.762;4.470;2023-06-05T07:46:45;9.63;;;5.15;;
38972;SDS011;25333;50.762;4.470;2023-06-05T07:49:12;9.80;;;4.33;;
38972;SDS011;25333;50.762;4.470;2023-06-05T07:51:38;8.38;;;4.03;;
38972;SDS011;25333;50.762;4.470;2023-06-05T07:54:05;9.50;;;5.00;;
38972;SDS011;25333;50.762;4.470;2023-06-05T07:56:31;10.00;;;5.07;;
38972;SDS011;25333;50.762;4.470;2023-06-05T07:58:58;7.68;;;5.65;;
38972;SDS011;25333;50.762;4.470;2023-06-05T08:01:24;8.23;;;5.28;;
38972;SDS011;25333;50.762;4.470;2023-06-05T08:03:50;8.32;;;5.53;;
38972;SDS011;25333;50.762;4.470;2023-06-05T08:06:16;8.00;;;4.25;;
38972;SDS011;25333;50.762;4.470;2023-06-05T08:08:42;7.65;;;5.13;;
38972;SDS011;25333;50.762;4.470;2023-06-05T08:11:08;8.80;;;4.72;;
38972;SDS011;25333;50.762;4.470;2023-06-05T08:13:34;8.35;;;5.13;;
38972;SDS011;25333;50.762;4.470;2023-06-05T08:15:59;8.32;;;4.38;;
38972;SDS011;25333;50.762;4.470;2023-06-05T08:18:25;6.63;;;4.35;;
38972;SDS011;25333;50.762;4.470;2023-06-05T08:20:51;6.45;;;4.50;;
38972;SDS011;25333;50.762;4.470;2023-06-05T08:23:16;6.80;;;4.03;;
38972;SDS011;25333;50.762;4.470;2023-06-05T08:25:42;9.17;;;5.23;;
38972;SDS011;25333;50.762;4.470;2023-06-05T08:28:08;8.52;;;5.15;;
38972;SDS011;25333;50.762;4.470;2023-06-05T08:30:34;7.83;;;4.77;;
38972;SDS011;25333;50.762;4.470;2023-06-05T08:32:59;5.83;;;3.90;;
38972;SDS011;25333;50.762;4.470;2023-06-05T08:35:25;5.50;;;4.10;;
38972;SDS011;25333;50.762;4.470;2023-06-05T08:37:51;6.40;;;4.47;;
38972;SDS011;25333;50.762;4.470;2023-06-05T08:40:16;6.22;;;3.83;;
38972;SDS011;25333;50.762;4.470;2023-06-05T08:42:43;7.38;;;4.40;;
38972;SDS011;25333;50.762;4.470;2023-06-05T08:45:10;5.55;;;3.88;;
38972;SDS011;25333;50.762;4.470;2023-06-05T08:47:37;6.03;;;3.75;;
38972;SDS011;25333;50.762;4.470;2023-06-05T08:50:07;8.05;;;4.22;;
38972;SDS011;25333;50.762;4.470;2023-06-05T08:52:37;5.40;;;3.90;;
38972;SDS011;25333;50.762;4.470;2023-06-05T08:55:04;9.00;;;4.63;;
38972;SDS011;25333;50.762;4.470;2023-06-05T08:57:40;7.45;;;4.78;;
38972;SDS011;25333;50.762;4.470;2023-06-05T09:00:06;7.63;;;4.90;;
38972;SDS011;25333;50.762;4.470;2023-06-05T09:02:39;6.30;;;3.45;;
38972;SDS011;25333;50.762;4.470;2023-06-05T09:05:12;5.22;;;3.72;;
38972;SDS011;25333;50.762;4.470;2023-06-05T09:07:38;5.50;;;3.85;;
38972;SDS011;25333;50.762;4.470;2023-06-05T09:10:20;6.47;;;3.97;;
38972;SDS011;25333;50.762;4.470;2023-06-05T09:12:58;10.55;;;4.90;;
38972;SDS011;25333;50.762;4.470;2023-06-05T09:15:26;9.07;;;4.55;;
38972;SDS011;25333;50.762;4.470;2023-06-05T09:20:37;7.75;;;4.13;;
38972;SDS011;25333;50.762;4.470;2023-06-05T09:23:24;7.13;;;3.53;;
38972;SDS011;25333;50.762;4.470;2023-06-05T09:25:54;8.70;;;4.70;;
38972;SDS011;25333;50.762;4.470;2023-06-05T09:28:54;6.03;;;3.83;;
38972;SDS011;25333;50.762;4.470;2023-06-05T09:31:22;5.70;;;3.70;;
38972;SDS011;25333;50.762;4.470;2023-06-05T09:34:00;5.82;;;3.67;;
38972;SDS011;25333;50.762;4.470;2023-06-05T09:36:31;6.87;;;4.17;;
38972;SDS011;25333;50.762;4.470;2023-06-05T09:38:59;7.78;;;4.38;;
38972;SDS011;25333;50.762;4.470;2023-06-05T09:41:46;6.75;;;3.55;;
38972;SDS011;25333;50.762;4.470;2023-06-05T09:44:30;8.02;;;4.55;;
38972;SDS011;25333;50.762;4.470;2023-06-05T09:46:59;6.95;;;4.40;;
38972;SDS011;25333;50.762;4.470;2023-06-05T09:52:27;9.32;;;4.82;;
38972;SDS011;25333;50.762;4.470;2023-06-05T09:54:53;5.85;;;3.72;;
38972;SDS011;25333;50.762;4.470;2023-06-05T09:57:22;4.70;;;3.90;;
38972;SDS011;25333;50.762;4.470;2023-06-05T09:59:53;6.93;;;4.03;;
38972;SDS011;25333;50.762;4.470;2023-06-05T10:02:20;6.50;;;3.60;;
38972;SDS011;25333;50.762;4.470;2023-06-05T10:04:49;7.82;;;3.83;;
38972;SDS011;25333;50.762;4.470;2023-06-05T10:07:24;7.47;;;4.28;;
38972;SDS011;25333;50.762;4.470;2023-06-05T10:09:51;7.00;;;4.38;;
38972;SDS011;25333;50.762;4.470;2023-06-05T10:12:18;7.15;;;3.42;;
38972;SDS011;25333;50.762;4.470;2023-06-05T10:14:44;7.18;;;4.20;;
38972;SDS011;25333;50.762;4.470;2023-06-05T10:17:11;5.43;;;3.70;;
38972;SDS011;25333;50.762;4.470;2023-06-05T10:19:40;5.00;;;3.17;;
38972;SDS011;25333;50.762;4.470;2023-06-05T10:22:09;5.43;;;3.78;;
38972;SDS011;25333;50.762;4.470;2023-06-05T10:24:37;5.60;;;3.50;;
38972;SDS011;25333;50.762;4.470;2023-06-05T10:40:38;4.85;;;2.28;;
38972;SDS011;25333;50.762;4.470;2023-06-05T10:43:23;5.43;;;3.03;;
38972;SDS011;25333;50.762;4.470;2023-06-05T10:45:50;9.40;;;2.97;;
38972;SDS011;25333;50.762;4.470;2023-06-05T10:48:15;4.85;;;2.40;;
38972;SDS011;25333;50.762;4.470;2023-06-05T10:50:41;5.35;;;2.83;;
38972;SDS011;25333;50.762;4.470;2023-06-05T10:53:07;4.50;;;3.55;;
38972;SDS011;25333;50.762;4.470;2023-06-05T10:56:36;4.80;;;2.83;;
38972;SDS011;25333;50.762;4.470;2023-06-05T10:59:14;4.68;;;2.60;;
38972;SDS011;25333;50.762;4.470;2023-06-05T11:01:40;5.53;;;2.90;;
38972;SDS011;25333;50.762;4.470;2023-06-05T11:04:06;3.83;;;2.60;;
38972;SDS011;25333;50.762;4.470;2023-06-05T11:06:32;4.07;;;2.28;;
38972;SDS011;25333;50.762;4.470;2023-06-05T11:09:10;4.63;;;2.38;;
38972;SDS011;25333;50.762;4.470;2023-06-05T11:11:56;4.28;;;2.63;;
38972;SDS011;25333;50.762;4.470;2023-06-05T11:14:47;5.60;;;2.50;;
38972;SDS011;25333;50.762;4.470;2023-06-05T11:19:59;3.22;;;1.70;;
38972;SDS011;25333;50.762;4.470;2023-06-05T11:22:25;2.85;;;1.40;;
38972;SDS011;25333;50.762;4.470;2023-06-05T11:27:43;3.80;;;1.80;;
38972;SDS011;25333;50.762;4.470;2023-06-05T11:30:13;3.88;;;2.08;;
38972;SDS011;25333;50.762;4.470;2023-06-05T11:32:40;5.28;;;2.45;;
38972;SDS011;25333;50.762;4.470;2023-06-05T11:35:06;4.00;;;1.75;;
38972;SDS011;25333;50.762;4.470;2023-06-05T11:37:33;6.25;;;2.40;;
38972;SDS011;25333;50.762;4.470;2023-06-05T11:40:02;3.80;;;1.77;;
38972;SDS011;25333;50.762;4.470;2023-06-05T11:42:36;3.08;;;1.80;;
38972;SDS011;25333;50.762;4.470;2023-06-05T11:45:13;3.92;;;2.25;;
38972;SDS011;25333;50.762;4.470;2023-06-05T11:47:41;3.95;;;1.95;;
38972;SDS011;25333;50.762;4.470;2023-06-05T11:50:14;2.80;;;1.50;;
38972;SDS011;25333;50.762;4.470;2023-06-05T11:52:42;4.55;;;1.50;;
38972;SDS011;25333;50.762;4.470;2023-06-05T11:55:15;3.23;;;1.10;;
38972;SDS011;25333;50.762;4.470;2023-06-05T11:57:46;2.25;;;1.13;;
38972;SDS011;25333;50.762;4.470;2023-06-05T12:00:14;2.30;;;1.17;;
38972;SDS011;25333;50.762;4.470;2023-06-05T12:02:41;4.22;;;1.17;;
38972;SDS011;25333;50.762;4.470;2023-06-05T12:05:08;3.10;;;1.10;;
38972;SDS011;25333;50.762;4.470;2023-06-05T12:07:35;2.65;;;1.35;;
38972;SDS011;25333;50.762;4.470;2023-06-05T12:10:05;1.48;;;0.75;;
38972;SDS011;25333;50.762;4.470;2023-06-05T12:12:32;2.15;;;1.02;;
38972;SDS011;25333;50.762;4.470;2023-06-05T12:15:18;2.15;;;1.10;;
38972;SDS011;25333;50.762;4.470;2023-06-05T12:17:48;2.60;;;1.15;;
38972;SDS011;25333;50.762;4.470;2023-06-05T12:20:16;3.17;;;1.00;;
38972;SDS011;25333;50.762;4.470;2023-06-05T12:22:41;2.50;;;1.20;;
38972;SDS011;25333;50.762;4.470;2023-06-05T12:25:17;2.20;;;0.85;;
38972;SDS011;25333;50.762;4.470;2023-06-05T12:27:43;3.10;;;1.10;;
38972;SDS011;25333;50.762;4.470;2023-06-05T12:30:13;3.37;;;1.30;;
38972;SDS011;25333;50.762;4.470;2023-06-05T12:32:43;2.78;;;1.23;;
38972;SDS011;25333;50.762;4.470;2023-06-05T12:35:20;4.40;;;1.10;;
38972;SDS011;25333;50.762;4.470;2023-06-05T12:37:47;2.00;;;1.08;;
38972;SDS011;25333;50.762;4.470;2023-06-05T12:40:15;2.35;;;0.70;;
38972;SDS011;25333;50.762;4.470;2023-06-05T12:42:46;3.38;;;1.08;;
38972;SDS011;25333;50.762;4.470;2023-06-05T12:45:12;4.57;;;1.30;;
38972;SDS011;25333;50.762;4.470;2023-06-05T12:47:38;2.22;;;1.02;;
38972;SDS011;25333;50.762;4.470;2023-06-05T12:50:05;2.00;;;0.90;;
38972;SDS011;25333;50.762;4.470;2023-06-05T12:52:38;4.05;;;0.98;;
38972;SDS011;25333;50.762;4.470;2023-06-05T12:55:04;1.58;;;0.75;;
38972;SDS011;25333;50.762;4.470;2023-06-05T12:57:31;1.97;;;1.30;;
38972;SDS011;25333;50.762;4.470;2023-06-05T12:59:57;2.83;;;1.13;;
38972;SDS011;25333;50.762;4.470;2023-06-05T13:02:23;1.70;;;0.93;;
38972;SDS011;25333;50.762;4.470;2023-06-05T13:04:49;1.85;;;0.90;;
38972;SDS011;25333;50.762;4.470;2023-06-05T13:07:15;3.38;;;1.10;;
38972;SDS011;25333;50.762;4.470;2023-06-05T13:09:42;2.83;;;1.30;;
38972;SDS011;25333;50.762;4.470;2023-06-05T13:12:08;2.53;;;1.02;;
38972;SDS011;25333;50.762;4.470;2023-06-05T13:14:34;2.83;;;1.15;;
38972;SDS011;25333;50.762;4.470;2023-06-05T13:17:00;2.13;;;0.73;;
38972;SDS011;25333;50.762;4.470;2023-06-05T13:19:28;2.90;;;1.02;;
38972;SDS011;25333;50.762;4.470;2023-06-05T13:21:54;1.50;;;0.60;;
38972;SDS011;25333;50.762;4.470;2023-06-05T13:24:20;3.27;;;0.80;;
38972;SDS011;25333;50.762;4.470;2023-06-05T13:26:50;2.05;;;1.35;;
38972;SDS011;25333;50.762;4.470;2023-06-05T13:29:15;2.53;;;1.20;;
38972;SDS011;25333;50.762;4.470;2023-06-05T13:31:41;2.78;;;1.17;;
38972;SDS011;25333;50.762;4.470;2023-06-05T13:34:07;2.73;;;1.40;;
38972;SDS011;25333;50.762;4.470;2023-06-05T13:36:32;2.37;;;1.10;;
38972;SDS011;25333;50.762;4.470;2023-06-05T13:38:58;5.50;;;1.87;;
38972;SDS011;25333;50.762;4.470;2023-06-05T13:41:24;3.15;;;1.25;;
38972;SDS011;25333;50.762;4.470;2023-06-05T13:43:51;3.67;;;1.13;;
38972;SDS011;25333;50.762;4.470;2023-06-05T13:46:16;3.70;;;1.30;;
38972;SDS011;25333;50.762;4.470;2023-06-05T13:48:42;2.03;;;1.00;;
38972;SDS011;25333;50.762;4.470;2023-06-05T13:51:07;3.03;;;0.90;;
38972;SDS011;25333;50.762;4.470;2023-06-05T13:53:33;2.85;;;1.10;;
38972;SDS011;25333;50.762;4.470;2023-06-05T13:56:03;3.38;;;1.30;;
38972;SDS011;25333;50.762;4.470;2023-06-05T13:58:30;2.38;;;1.00;;
38972;SDS011;25333;50.762;4.470;2023-06-05T14:00:56;2.50;;;1.10;;
38972;SDS011;25333;50.762;4.470;2023-06-05T14:03:23;2.38;;;1.13;;
38972;SDS011;25333;50.762;4.470;2023-06-05T14:05:49;2.37;;;1.13;;
38972;SDS011;25333;50.762;4.470;2023-06-05T14:08:15;4.20;;;1.53;;
38972;SDS011;25333;50.762;4.470;2023-06-05T14:10:40;2.80;;;1.30;;
38972;SDS011;25333;50.762;4.470;2023-06-05T14:13:06;2.33;;;1.20;;
38972;SDS011;25333;50.762;4.470;2023-06-05T14:15:32;2.37;;;1.43;;
38972;SDS011;25333;50.762;4.470;2023-06-05T14:18:04;2.75;;;0.77;;
38972;SDS011;25333;50.762;4.470;2023-06-05T14:20:31;4.37;;;1.37;;
38972;SDS011;25333;50.762;4.470;2023-06-05T14:22:58;2.83;;;1.23;;
38972;SDS011;25333;50.762;4.470;2023-06-05T14:25:24;1.60;;;0.98;;
38972;SDS011;25333;50.762;4.470;2023-06-05T14:27:54;2.85;;;0.93;;
38972;SDS011;25333;50.762;4.470;2023-06-05T14:30:20;3.58;;;1.10;;
38972;SDS011;25333;50.762;4.470;2023-06-05T14:32:47;2.70;;;1.02;;
38972;SDS011;25333;50.762;4.470;2023-06-05T14:35:12;4.15;;;1.25;;
38972;SDS011;25333;50.762;4.470;2023-06-05T14:37:38;1.98;;;1.27;;
38972;SDS011;25333;50.762;4.470;2023-06-05T14:40:04;2.90;;;1.13;;
38972;SDS011;25333;50.762;4.470;2023-06-05T14:42:31;1.92;;;0.90;;
38972;SDS011;25333;50.762;4.470;2023-06-05T14:44:56;2.83;;;1.30;;
38972;SDS011;25333;50.762;4.470;2023-06-05T14:47:22;2.05;;;1.00;;
38972;SDS011;25333;50.762;4.470;2023-06-05T14:49:48;1.52;;;1.10;;
38972;SDS011;25333;50.762;4.470;2023-06-05T14:52:14;5.82;;;1.50;;
38972;SDS011;25333;50.762;4.470;2023-06-05T14:54:40;3.58;;;1.20;;
38972;SDS011;25333;50.762;4.470;2023-06-05T14:57:06;1.50;;;1.02;;
38972;SDS011;25333;50.762;4.470;2023-06-05T14:59:49;5.75;;;1.52;;
38972;SDS011;25333;50.762;4.470;2023-06-05T15:02:15;3.10;;;1.52;;
38972;SDS011;25333;50.762;4.470;2023-06-05T15:04:40;4.27;;;1.53;;
38972;SDS011;25333;50.762;4.470;2023-06-05T15:07:06;2.33;;;1.17;;
38972;SDS011;25333;50.762;4.470;2023-06-05T15:09:32;4.87;;;1.77;;
38972;SDS011;25333;50.762;4.470;2023-06-05T15:11:57;2.43;;;1.30;;
38972;SDS011;25333;50.762;4.470;2023-06-05T15:14:25;3.67;;;1.55;;
38972;SDS011;25333;50.762;4.470;2023-06-05T15:16:50;3.40;;;1.80;;
38972;SDS011;25333;50.762;4.470;2023-06-05T15:19:16;4.85;;;1.42;;
38972;SDS011;25333;50.762;4.470;2023-06-05T15:21:42;4.60;;;1.77;;